sensor_id;sensor_type;location;lat;lon;timestamp;P1;durP1;ratioP1;P2;durP2;ratioP2
4839;SDS011;2434;48.486;7.964;2022-11-20T00:01:11;4.57;;;3.50;;
4839;SDS011;2434;48.486;7.964;2022-11-20T00:03:41;4.37;;;3.30;;
4839;SDS011;2434;48.486;7.964;2022-11-20T00:06:10;7.40;;;3.20;;
4839;SDS011;2434;48.486;7.964;2022-11-20T00:08:39;4.13;;;3.33;;
4839;SDS011;2434;48.486;7.964;2022-11-20T00:11:09;11.37;;;3.70;;
4839;SDS011;2434;48.486;7.964;2022-11-20T00:13:43;7.27;;;3.50;;
4839;SDS011;2434;48.486;7.964;2022-11-20T00:16:14;4.87;;;3.33;;
4839;SDS011;2434;48.486;7.964;2022-11-20T00:18:44;4.50;;;3.47;;
4839;SDS011;2434;48.486;7.964;2022-11-20T00:21:12;7.67;;;4.27;;
4839;SDS011;2434;48.486;7.964;2022-11-20T00:23:42;4.87;;;3.17;;
4839;SDS011;2434;48.486;7.964;2022-11-20T00:26:12;6.00;;;3.37;;
4839;SDS011;2434;48.486;7.964;2022-11-20T00:28:43;5.90;;;4.40;;
4839;SDS011;2434;48.486;7.964;2022-11-20T00:31:16;4.20;;;3.53;;
4839;SDS011;2434;48.486;7.964;2022-11-20T00:33:45;10.20;;;3.30;;
4839;SDS011;2434;48.486;7.964;2022-11-20T00:36:14;5.10;;;4.20;;
4839;SDS011;2434;48.486;7.964;2022-11-20T00:38:44;4.40;;;4.00;;
4839;SDS011;2434;48.486;7.964;2022-11-20T00:41:14;5.03;;;4.13;;
4839;SDS011;2434;48.486;7.964;2022-11-20T00:43:44;5.40;;;3.83;;
4839;SDS011;2434;48.486;7.964;2022-11-20T00:46:13;5.20;;;3.70;;
4839;SDS011;2434;48.486;7.964;2022-11-20T00:48:43;5.57;;;4.20;;
4839;SDS011;2434;48.486;7.964;2022-11-20T00:51:12;4.73;;;3.80;;
4839;SDS011;2434;48.486;7.964;2022-11-20T00:53:42;4.60;;;3.43;;
4839;SDS011;2434;48.486;7.964;2022-11-20T00:56:12;4.80;;;4.23;;
4839;SDS011;2434;48.486;7.964;2022-11-20T00:58:42;5.10;;;4.00;;
4839;SDS011;2434;48.486;7.964;2022-11-20T01:01:14;4.80;;;3.60;;
4839;SDS011;2434;48.486;7.964;2022-11-20T01:03:44;9.07;;;4.30;;
4839;SDS011;2434;48.486;7.964;2022-11-20T01:06:14;6.03;;;4.70;;
4839;SDS011;2434;48.486;7.964;2022-11-20T01:08:44;8.13;;;4.70;;
4839;SDS011;2434;48.486;7.964;2022-11-20T01:11:14;4.40;;;4.00;;
4839;SDS011;2434;48.486;7.964;2022-11-20T01:13:45;10.93;;;4.63;;
4839;SDS011;2434;48.486;7.964;2022-11-20T01:16:15;8.43;;;5.13;;
4839;SDS011;2434;48.486;7.964;2022-11-20T01:18:45;6.00;;;4.33;;
4839;SDS011;2434;48.486;7.964;2022-11-20T01:21:15;5.80;;;4.30;;
4839;SDS011;2434;48.486;7.964;2022-11-20T01:23:45;6.87;;;4.20;;
4839;SDS011;2434;48.486;7.964;2022-11-20T01:26:15;6.30;;;4.40;;
4839;SDS011;2434;48.486;7.964;2022-11-20T01:28:46;6.23;;;4.30;;
4839;SDS011;2434;48.486;7.964;2022-11-20T01:31:17;5.80;;;4.00;;
4839;SDS011;2434;48.486;7.964;2022-11-20T01:33:47;5.40;;;4.10;;
4839;SDS011;2434;48.486;7.964;2022-11-20T01:36:18;8.43;;;3.93;;
4839;SDS011;2434;48.486;7.964;2022-11-20T01:38:47;5.53;;;4.07;;
4839;SDS011;2434;48.486;7.964;2022-11-20T01:41:18;4.70;;;4.03;;
4839;SDS011;2434;48.486;7.964;2022-11-20T01:44:02;11.10;;;5.13;;
4839;SDS011;2434;48.486;7.964;2022-11-20T01:46:31;4.83;;;4.13;;
4839;SDS011;2434;48.486;7.964;2022-11-20T01:49:02;8.47;;;4.60;;
4839;SDS011;2434;48.486;7.964;2022-11-20T01:51:38;6.30;;;4.37;;
4839;SDS011;2434;48.486;7.964;2022-11-20T01:54:11;4.97;;;4.27;;
4839;SDS011;2434;48.486;7.964;2022-11-20T01:56:42;4.37;;;3.97;;
4839;SDS011;2434;48.486;7.964;2022-11-20T01:59:15;5.30;;;3.70;;
4839;SDS011;2434;48.486;7.964;2022-11-20T02:01:45;5.57;;;4.33;;
4839;SDS011;2434;48.486;7.964;2022-11-20T02:04:14;5.40;;;4.20;;
4839;SDS011;2434;48.486;7.964;2022-11-20T02:06:44;4.27;;;3.87;;
4839;SDS011;2434;48.486;7.964;2022-11-20T02:09:15;5.20;;;3.43;;
4839;SDS011;2434;48.486;7.964;2022-11-20T02:11:45;5.87;;;3.57;;
4839;SDS011;2434;48.486;7.964;2022-11-20T02:14:15;5.57;;;3.70;;
4839;SDS011;2434;48.486;7.964;2022-11-20T02:16:43;4.13;;;3.43;;
4839;SDS011;2434;48.486;7.964;2022-11-20T02:19:16;5.13;;;3.97;;
4839;SDS011;2434;48.486;7.964;2022-11-20T02:21:52;4.83;;;3.87;;
4839;SDS011;2434;48.486;7.964;2022-11-20T02:24:29;4.50;;;3.50;;
4839;SDS011;2434;48.486;7.964;2022-11-20T02:26:59;4.20;;;3.80;;
4839;SDS011;2434;48.486;7.964;2022-11-20T02:29:31;3.93;;;3.03;;
4839;SDS011;2434;48.486;7.964;2022-11-20T02:32:04;3.30;;;2.80;;
4839;SDS011;2434;48.486;7.964;2022-11-20T02:34:32;2.93;;;2.70;;
4839;SDS011;2434;48.486;7.964;2022-11-20T02:37:00;5.50;;;3.17;;
4839;SDS011;2434;48.486;7.964;2022-11-20T02:39:30;4.07;;;3.03;;
4839;SDS011;2434;48.486;7.964;2022-11-20T02:42:00;3.20;;;2.90;;
4839;SDS011;2434;48.486;7.964;2022-11-20T02:44:29;6.03;;;3.10;;
4839;SDS011;2434;48.486;7.964;2022-11-20T02:46:57;3.30;;;2.60;;
4839;SDS011;2434;48.486;7.964;2022-11-20T02:49:26;6.00;;;3.20;;
4839;SDS011;2434;48.486;7.964;2022-11-20T02:51:54;5.17;;;3.63;;
4839;SDS011;2434;48.486;7.964;2022-11-20T02:54:23;4.77;;;2.77;;
4839;SDS011;2434;48.486;7.964;2022-11-20T02:56:53;4.63;;;3.80;;
4839;SDS011;2434;48.486;7.964;2022-11-20T02:59:21;3.30;;;2.83;;
4839;SDS011;2434;48.486;7.964;2022-11-20T03:01:49;3.97;;;3.03;;
4839;SDS011;2434;48.486;7.964;2022-11-20T03:04:18;6.70;;;3.37;;
4839;SDS011;2434;48.486;7.964;2022-11-20T03:06:46;2.93;;;2.60;;
4839;SDS011;2434;48.486;7.964;2022-11-20T03:09:14;6.30;;;3.53;;
4839;SDS011;2434;48.486;7.964;2022-11-20T03:11:43;5.73;;;3.33;;
4839;SDS011;2434;48.486;7.964;2022-11-20T03:14:13;6.10;;;2.90;;
4839;SDS011;2434;48.486;7.964;2022-11-20T03:16:41;4.60;;;2.57;;
4839;SDS011;2434;48.486;7.964;2022-11-20T03:19:10;11.33;;;3.10;;
4839;SDS011;2434;48.486;7.964;2022-11-20T03:21:38;6.30;;;3.13;;
4839;SDS011;2434;48.486;7.964;2022-11-20T03:24:07;8.33;;;3.60;;
4839;SDS011;2434;48.486;7.964;2022-11-20T03:26:35;5.83;;;3.83;;
4839;SDS011;2434;48.486;7.964;2022-11-20T03:29:04;4.80;;;3.57;;
4839;SDS011;2434;48.486;7.964;2022-11-20T03:31:34;9.57;;;3.90;;
4839;SDS011;2434;48.486;7.964;2022-11-20T03:34:07;7.90;;;3.00;;
4839;SDS011;2434;48.486;7.964;2022-11-20T03:36:37;3.30;;;2.80;;
4839;SDS011;2434;48.486;7.964;2022-11-20T03:39:05;6.97;;;3.30;;
4839;SDS011;2434;48.486;7.964;2022-11-20T03:41:35;4.27;;;3.17;;
4839;SDS011;2434;48.486;7.964;2022-11-20T03:44:06;3.40;;;3.10;;
4839;SDS011;2434;48.486;7.964;2022-11-20T03:46:37;5.47;;;3.63;;
4839;SDS011;2434;48.486;7.964;2022-11-20T03:49:06;5.90;;;3.50;;
4839;SDS011;2434;48.486;7.964;2022-11-20T03:51:35;4.40;;;2.90;;
4839;SDS011;2434;48.486;7.964;2022-11-20T03:54:04;5.20;;;2.90;;
4839;SDS011;2434;48.486;7.964;2022-11-20T03:56:34;5.73;;;3.03;;
4839;SDS011;2434;48.486;7.964;2022-11-20T03:59:05;4.30;;;3.00;;
4839;SDS011;2434;48.486;7.964;2022-11-20T04:01:34;6.07;;;3.13;;
4839;SDS011;2434;48.486;7.964;2022-11-20T04:04:05;3.63;;;2.90;;
4839;SDS011;2434;48.486;7.964;2022-11-20T04:06:34;4.03;;;3.70;;
4839;SDS011;2434;48.486;7.964;2022-11-20T04:09:05;4.17;;;3.30;;
4839;SDS011;2434;48.486;7.964;2022-11-20T04:11:35;3.53;;;3.23;;
4839;SDS011;2434;48.486;7.964;2022-11-20T04:14:04;5.53;;;3.83;;
4839;SDS011;2434;48.486;7.964;2022-11-20T04:16:35;8.53;;;4.40;;
4839;SDS011;2434;48.486;7.964;2022-11-20T04:19:04;4.17;;;3.87;;
4839;SDS011;2434;48.486;7.964;2022-11-20T04:21:37;6.13;;;3.83;;
4839;SDS011;2434;48.486;7.964;2022-11-20T04:24:06;5.23;;;3.83;;
4839;SDS011;2434;48.486;7.964;2022-11-20T04:26:34;5.80;;;4.20;;
4839;SDS011;2434;48.486;7.964;2022-11-20T04:29:03;6.13;;;4.50;;
4839;SDS011;2434;48.486;7.964;2022-11-20T04:31:32;7.40;;;4.97;;
4839;SDS011;2434;48.486;7.964;2022-11-20T04:34:02;9.83;;;4.20;;
4839;SDS011;2434;48.486;7.964;2022-11-20T04:36:33;5.20;;;4.23;;
4839;SDS011;2434;48.486;7.964;2022-11-20T04:39:03;10.77;;;4.43;;
4839;SDS011;2434;48.486;7.964;2022-11-20T04:41:33;6.00;;;3.90;;
4839;SDS011;2434;48.486;7.964;2022-11-20T04:44:03;7.40;;;4.60;;
4839;SDS011;2434;48.486;7.964;2022-11-20T04:46:33;6.50;;;4.10;;
4839;SDS011;2434;48.486;7.964;2022-11-20T04:49:03;6.50;;;4.50;;
4839;SDS011;2434;48.486;7.964;2022-11-20T04:51:33;7.43;;;5.00;;
4839;SDS011;2434;48.486;7.964;2022-11-20T04:54:02;10.30;;;4.60;;
4839;SDS011;2434;48.486;7.964;2022-11-20T04:56:31;9.00;;;5.20;;
4839;SDS011;2434;48.486;7.964;2022-11-20T04:58:59;4.87;;;4.23;;
4839;SDS011;2434;48.486;7.964;2022-11-20T05:01:28;5.97;;;5.40;;
4839;SDS011;2434;48.486;7.964;2022-11-20T05:03:59;8.67;;;5.60;;
4839;SDS011;2434;48.486;7.964;2022-11-20T05:06:27;5.43;;;4.53;;
4839;SDS011;2434;48.486;7.964;2022-11-20T05:08:56;5.10;;;4.27;;
4839;SDS011;2434;48.486;7.964;2022-11-20T05:11:25;7.07;;;3.77;;
4839;SDS011;2434;48.486;7.964;2022-11-20T05:13:55;6.73;;;4.50;;
4839;SDS011;2434;48.486;7.964;2022-11-20T05:16:26;6.60;;;4.70;;
4839;SDS011;2434;48.486;7.964;2022-11-20T05:18:54;6.83;;;3.90;;
4839;SDS011;2434;48.486;7.964;2022-11-20T05:21:23;4.20;;;3.80;;
4839;SDS011;2434;48.486;7.964;2022-11-20T05:23:51;4.43;;;4.00;;
4839;SDS011;2434;48.486;7.964;2022-11-20T05:26:21;5.87;;;4.70;;
4839;SDS011;2434;48.486;7.964;2022-11-20T05:28:50;8.10;;;4.67;;
4839;SDS011;2434;48.486;7.964;2022-11-20T05:31:19;11.40;;;4.50;;
4839;SDS011;2434;48.486;7.964;2022-11-20T05:33:53;6.03;;;4.53;;
4839;SDS011;2434;48.486;7.964;2022-11-20T05:36:23;4.93;;;4.47;;
4839;SDS011;2434;48.486;7.964;2022-11-20T05:38:51;9.23;;;4.17;;
4839;SDS011;2434;48.486;7.964;2022-11-20T05:41:28;8.10;;;4.27;;
4839;SDS011;2434;48.486;7.964;2022-11-20T05:43:56;4.87;;;4.13;;
4839;SDS011;2434;48.486;7.964;2022-11-20T05:46:26;5.07;;;4.00;;
4839;SDS011;2434;48.486;7.964;2022-11-20T05:48:55;5.00;;;3.40;;
4839;SDS011;2434;48.486;7.964;2022-11-20T05:51:24;4.93;;;3.40;;
4839;SDS011;2434;48.486;7.964;2022-11-20T05:53:53;6.40;;;4.23;;
4839;SDS011;2434;48.486;7.964;2022-11-20T05:56:21;6.53;;;4.77;;
4839;SDS011;2434;48.486;7.964;2022-11-20T05:58:51;7.40;;;4.20;;
4839;SDS011;2434;48.486;7.964;2022-11-20T06:01:20;5.03;;;4.03;;
4839;SDS011;2434;48.486;7.964;2022-11-20T06:03:49;4.90;;;3.70;;
4839;SDS011;2434;48.486;7.964;2022-11-20T06:06:18;5.07;;;3.60;;
4839;SDS011;2434;48.486;7.964;2022-11-20T06:08:47;4.93;;;4.43;;
4839;SDS011;2434;48.486;7.964;2022-11-20T06:11:16;6.70;;;3.37;;
4839;SDS011;2434;48.486;7.964;2022-11-20T06:13:45;4.30;;;3.90;;
4839;SDS011;2434;48.486;7.964;2022-11-20T06:16:17;5.23;;;3.23;;
4839;SDS011;2434;48.486;7.964;2022-11-20T06:18:48;6.00;;;4.00;;
4839;SDS011;2434;48.486;7.964;2022-11-20T06:21:16;5.23;;;3.90;;
4839;SDS011;2434;48.486;7.964;2022-11-20T06:23:47;9.43;;;4.27;;
4839;SDS011;2434;48.486;7.964;2022-11-20T06:26:16;5.23;;;4.30;;
4839;SDS011;2434;48.486;7.964;2022-11-20T06:28:46;4.83;;;3.10;;
4839;SDS011;2434;48.486;7.964;2022-11-20T06:31:16;5.30;;;3.43;;
4839;SDS011;2434;48.486;7.964;2022-11-20T06:33:47;5.07;;;3.30;;
4839;SDS011;2434;48.486;7.964;2022-11-20T06:36:17;3.70;;;2.90;;
4839;SDS011;2434;48.486;7.964;2022-11-20T06:38:46;4.03;;;3.40;;
4839;SDS011;2434;48.486;7.964;2022-11-20T06:41:15;5.60;;;3.53;;
4839;SDS011;2434;48.486;7.964;2022-11-20T06:43:45;6.50;;;3.57;;
4839;SDS011;2434;48.486;7.964;2022-11-20T06:46:14;4.07;;;3.07;;
4839;SDS011;2434;48.486;7.964;2022-11-20T06:48:45;2.70;;;2.50;;
4839;SDS011;2434;48.486;7.964;2022-11-20T06:51:15;3.10;;;2.80;;
4839;SDS011;2434;48.486;7.964;2022-11-20T06:53:44;9.30;;;2.93;;
4839;SDS011;2434;48.486;7.964;2022-11-20T06:56:12;3.90;;;2.50;;
4839;SDS011;2434;48.486;7.964;2022-11-20T06:58:41;2.50;;;1.93;;
4839;SDS011;2434;48.486;7.964;2022-11-20T07:01:10;3.83;;;2.00;;
4839;SDS011;2434;48.486;7.964;2022-11-20T07:03:40;3.07;;;2.77;;
4839;SDS011;2434;48.486;7.964;2022-11-20T07:06:11;3.03;;;2.40;;
4839;SDS011;2434;48.486;7.964;2022-11-20T07:08:39;4.77;;;2.77;;
4839;SDS011;2434;48.486;7.964;2022-11-20T07:11:07;7.40;;;2.03;;
4839;SDS011;2434;48.486;7.964;2022-11-20T07:13:39;3.00;;;2.30;;
4839;SDS011;2434;48.486;7.964;2022-11-20T07:16:07;2.80;;;2.10;;
4839;SDS011;2434;48.486;7.964;2022-11-20T07:18:36;4.10;;;2.13;;
4839;SDS011;2434;48.486;7.964;2022-11-20T07:21:06;3.90;;;2.77;;
4839;SDS011;2434;48.486;7.964;2022-11-20T07:23:37;3.43;;;2.60;;
4839;SDS011;2434;48.486;7.964;2022-11-20T07:26:06;3.13;;;2.00;;
4839;SDS011;2434;48.486;7.964;2022-11-20T07:28:37;4.30;;;2.47;;
4839;SDS011;2434;48.486;7.964;2022-11-20T07:31:06;3.67;;;2.80;;
4839;SDS011;2434;48.486;7.964;2022-11-20T07:33:36;2.37;;;2.17;;
4839;SDS011;2434;48.486;7.964;2022-11-20T07:36:06;4.23;;;2.70;;
4839;SDS011;2434;48.486;7.964;2022-11-20T07:38:34;3.73;;;3.00;;
4839;SDS011;2434;48.486;7.964;2022-11-20T07:41:04;5.40;;;3.20;;
4839;SDS011;2434;48.486;7.964;2022-11-20T07:43:32;5.00;;;2.73;;
4839;SDS011;2434;48.486;7.964;2022-11-20T07:46:06;5.80;;;3.10;;
4839;SDS011;2434;48.486;7.964;2022-11-20T07:48:34;6.83;;;3.00;;
4839;SDS011;2434;48.486;7.964;2022-11-20T07:51:02;3.57;;;3.23;;
4839;SDS011;2434;48.486;7.964;2022-11-20T07:53:32;4.93;;;3.67;;
4839;SDS011;2434;48.486;7.964;2022-11-20T07:56:01;3.77;;;3.20;;
4839;SDS011;2434;48.486;7.964;2022-11-20T07:58:29;5.50;;;3.80;;
4839;SDS011;2434;48.486;7.964;2022-11-20T08:01:01;3.33;;;2.80;;
4839;SDS011;2434;48.486;7.964;2022-11-20T08:03:30;3.73;;;2.97;;
4839;SDS011;2434;48.486;7.964;2022-11-20T08:05:59;4.47;;;3.20;;
4839;SDS011;2434;48.486;7.964;2022-11-20T08:08:28;4.57;;;3.60;;
4839;SDS011;2434;48.486;7.964;2022-11-20T08:11:01;3.70;;;3.40;;
4839;SDS011;2434;48.486;7.964;2022-11-20T08:13:46;3.50;;;3.00;;
4839;SDS011;2434;48.486;7.964;2022-11-20T08:16:32;4.43;;;3.60;;
4839;SDS011;2434;48.486;7.964;2022-11-20T08:19:00;4.30;;;3.73;;
4839;SDS011;2434;48.486;7.964;2022-11-20T08:21:29;5.33;;;3.53;;
4839;SDS011;2434;48.486;7.964;2022-11-20T08:24:04;3.93;;;3.53;;
4839;SDS011;2434;48.486;7.964;2022-11-20T08:26:34;5.13;;;3.77;;
4839;SDS011;2434;48.486;7.964;2022-11-20T08:29:03;4.30;;;3.60;;
4839;SDS011;2434;48.486;7.964;2022-11-20T08:31:32;3.67;;;3.20;;
4839;SDS011;2434;48.486;7.964;2022-11-20T08:34:00;7.13;;;3.70;;
4839;SDS011;2434;48.486;7.964;2022-11-20T08:36:35;4.27;;;3.87;;
4839;SDS011;2434;48.486;7.964;2022-11-20T08:39:04;4.50;;;3.97;;
4839;SDS011;2434;48.486;7.964;2022-11-20T08:41:33;3.13;;;2.83;;
4839;SDS011;2434;48.486;7.964;2022-11-20T08:44:03;3.57;;;3.23;;
4839;SDS011;2434;48.486;7.964;2022-11-20T08:46:33;3.83;;;3.17;;
4839;SDS011;2434;48.486;7.964;2022-11-20T08:49:03;3.93;;;3.50;;
4839;SDS011;2434;48.486;7.964;2022-11-20T08:51:32;4.40;;;3.30;;
4839;SDS011;2434;48.486;7.964;2022-11-20T08:54:00;7.20;;;4.20;;
4839;SDS011;2434;48.486;7.964;2022-11-20T08:56:30;9.40;;;4.13;;
4839;SDS011;2434;48.486;7.964;2022-11-20T08:59:00;7.50;;;4.60;;
4839;SDS011;2434;48.486;7.964;2022-11-20T09:01:49;4.87;;;3.60;;
4839;SDS011;2434;48.486;7.964;2022-11-20T09:04:18;5.80;;;3.33;;
4839;SDS011;2434;48.486;7.964;2022-11-20T09:06:46;5.40;;;3.30;;
4839;SDS011;2434;48.486;7.964;2022-11-20T09:09:17;5.30;;;3.27;;
4839;SDS011;2434;48.486;7.964;2022-11-20T09:11:46;7.33;;;3.73;;
4839;SDS011;2434;48.486;7.964;2022-11-20T09:14:17;4.40;;;3.67;;
4839;SDS011;2434;48.486;7.964;2022-11-20T09:16:46;2.80;;;2.60;;
4839;SDS011;2434;48.486;7.964;2022-11-20T09:19:14;4.10;;;3.33;;
4839;SDS011;2434;48.486;7.964;2022-11-20T09:22:02;5.70;;;3.37;;
4839;SDS011;2434;48.486;7.964;2022-11-20T09:24:30;3.60;;;3.23;;
4839;SDS011;2434;48.486;7.964;2022-11-20T09:27:01;3.87;;;2.97;;
4839;SDS011;2434;48.486;7.964;2022-11-20T09:29:31;4.50;;;2.70;;
4839;SDS011;2434;48.486;7.964;2022-11-20T09:31:59;4.53;;;2.73;;
4839;SDS011;2434;48.486;7.964;2022-11-20T09:34:27;6.30;;;3.53;;
4839;SDS011;2434;48.486;7.964;2022-11-20T09:36:56;3.93;;;3.53;;
4839;SDS011;2434;48.486;7.964;2022-11-20T09:39:29;4.43;;;3.20;;
4839;SDS011;2434;48.486;7.964;2022-11-20T09:42:07;4.40;;;3.43;;
4839;SDS011;2434;48.486;7.964;2022-11-20T09:44:51;3.50;;;3.20;;
4839;SDS011;2434;48.486;7.964;2022-11-20T09:47:31;5.50;;;3.60;;
4839;SDS011;2434;48.486;7.964;2022-11-20T09:50:16;5.90;;;3.50;;
4839;SDS011;2434;48.486;7.964;2022-11-20T09:52:57;4.30;;;3.70;;
4839;SDS011;2434;48.486;7.964;2022-11-20T09:55:34;8.27;;;3.83;;
4839;SDS011;2434;48.486;7.964;2022-11-20T09:58:05;6.93;;;3.47;;
4839;SDS011;2434;48.486;7.964;2022-11-20T10:00:36;4.27;;;3.87;;
4839;SDS011;2434;48.486;7.964;2022-11-20T10:03:06;3.33;;;3.03;;
4839;SDS011;2434;48.486;7.964;2022-11-20T10:05:43;5.50;;;3.60;;
4839;SDS011;2434;48.486;7.964;2022-11-20T10:08:15;6.57;;;3.70;;
4839;SDS011;2434;48.486;7.964;2022-11-20T10:10:49;4.70;;;4.30;;
4839;SDS011;2434;48.486;7.964;2022-11-20T10:13:25;4.40;;;4.00;;
4839;SDS011;2434;48.486;7.964;2022-11-20T10:16:08;4.60;;;3.10;;
4839;SDS011;2434;48.486;7.964;2022-11-20T10:18:49;4.47;;;3.17;;
4839;SDS011;2434;48.486;7.964;2022-11-20T10:21:30;5.20;;;3.87;;
4839;SDS011;2434;48.486;7.964;2022-11-20T10:24:22;4.33;;;3.33;;
4839;SDS011;2434;48.486;7.964;2022-11-20T10:27:03;6.47;;;3.27;;
4839;SDS011;2434;48.486;7.964;2022-11-20T10:29:44;5.93;;;3.70;;
4839;SDS011;2434;48.486;7.964;2022-11-20T10:32:20;3.80;;;3.07;;
4839;SDS011;2434;48.486;7.964;2022-11-20T10:34:52;7.70;;;3.43;;
4839;SDS011;2434;48.486;7.964;2022-11-20T10:37:25;6.93;;;3.80;;
4839;SDS011;2434;48.486;7.964;2022-11-20T10:39:56;5.87;;;2.87;;
4839;SDS011;2434;48.486;7.964;2022-11-20T10:42:30;3.77;;;3.47;;
4839;SDS011;2434;48.486;7.964;2022-11-20T10:45:02;9.10;;;3.50;;
4839;SDS011;2434;48.486;7.964;2022-11-20T10:47:45;5.03;;;3.37;;
4839;SDS011;2434;48.486;7.964;2022-11-20T10:50:14;6.20;;;3.60;;
4839;SDS011;2434;48.486;7.964;2022-11-20T10:52:50;5.33;;;2.93;;
4839;SDS011;2434;48.486;7.964;2022-11-20T10:55:26;4.57;;;3.50;;
4839;SDS011;2434;48.486;7.964;2022-11-20T10:58:01;6.40;;;4.40;;
4839;SDS011;2434;48.486;7.964;2022-11-20T11:00:36;4.63;;;3.63;;
4839;SDS011;2434;48.486;7.964;2022-11-20T11:03:13;7.33;;;3.70;;
4839;SDS011;2434;48.486;7.964;2022-11-20T11:05:48;3.93;;;2.50;;
4839;SDS011;2434;48.486;7.964;2022-11-20T11:08:21;8.00;;;3.40;;
4839;SDS011;2434;48.486;7.964;2022-11-20T11:10:54;4.53;;;3.07;;
4839;SDS011;2434;48.486;7.964;2022-11-20T11:13:25;3.27;;;2.70;;
4839;SDS011;2434;48.486;7.964;2022-11-20T11:15:55;3.83;;;2.83;;
4839;SDS011;2434;48.486;7.964;2022-11-20T11:18:26;2.70;;;2.43;;
4839;SDS011;2434;48.486;7.964;2022-11-20T11:20:56;3.97;;;2.10;;
4839;SDS011;2434;48.486;7.964;2022-11-20T11:23:31;7.33;;;2.00;;
4839;SDS011;2434;48.486;7.964;2022-11-20T11:26:02;3.27;;;2.27;;
4839;SDS011;2434;48.486;7.964;2022-11-20T11:28:32;4.37;;;2.33;;
4839;SDS011;2434;48.486;7.964;2022-11-20T11:31:01;3.97;;;1.63;;
4839;SDS011;2434;48.486;7.964;2022-11-20T11:33:31;5.03;;;1.90;;
4839;SDS011;2434;48.486;7.964;2022-11-20T11:36:01;3.47;;;1.37;;
4839;SDS011;2434;48.486;7.964;2022-11-20T11:38:34;2.50;;;1.73;;
4839;SDS011;2434;48.486;7.964;2022-11-20T11:41:04;2.50;;;1.10;;
4839;SDS011;2434;48.486;7.964;2022-11-20T11:43:35;3.70;;;2.20;;
4839;SDS011;2434;48.486;7.964;2022-11-20T11:46:29;2.60;;;1.23;;
4839;SDS011;2434;48.486;7.964;2022-11-20T11:49:01;4.40;;;1.70;;
4839;SDS011;2434;48.486;7.964;2022-11-20T11:51:46;4.20;;;1.17;;
4839;SDS011;2434;48.486;7.964;2022-11-20T11:54:24;2.60;;;1.60;;
4839;SDS011;2434;48.486;7.964;2022-11-20T11:56:58;3.20;;;1.00;;
4839;SDS011;2434;48.486;7.964;2022-11-20T11:59:33;3.93;;;1.23;;
4839;SDS011;2434;48.486;7.964;2022-11-20T12:02:19;2.60;;;1.20;;
4839;SDS011;2434;48.486;7.964;2022-11-20T12:04:59;2.70;;;1.20;;
4839;SDS011;2434;48.486;7.964;2022-11-20T12:07:35;5.60;;;1.30;;
4839;SDS011;2434;48.486;7.964;2022-11-20T12:10:15;2.27;;;1.13;;
4839;SDS011;2434;48.486;7.964;2022-11-20T12:12:48;3.17;;;1.50;;
4839;SDS011;2434;48.486;7.964;2022-11-20T12:15:29;2.83;;;1.20;;
4839;SDS011;2434;48.486;7.964;2022-11-20T12:18:00;1.60;;;1.50;;
4839;SDS011;2434;48.486;7.964;2022-11-20T12:20:32;2.43;;;1.10;;
4839;SDS011;2434;48.486;7.964;2022-11-20T12:23:13;3.17;;;1.30;;
4839;SDS011;2434;48.486;7.964;2022-11-20T12:25:46;2.47;;;1.53;;
4839;SDS011;2434;48.486;7.964;2022-11-20T12:28:28;3.50;;;1.70;;
4839;SDS011;2434;48.486;7.964;2022-11-20T12:34:13;4.67;;;1.30;;
4839;SDS011;2434;48.486;7.964;2022-11-20T12:36:54;3.57;;;1.30;;
4839;SDS011;2434;48.486;7.964;2022-11-20T12:39:32;7.70;;;1.40;;
4839;SDS011;2434;48.486;7.964;2022-11-20T12:42:06;2.03;;;1.13;;
4839;SDS011;2434;48.486;7.964;2022-11-20T12:48:26;2.90;;;1.10;;
4839;SDS011;2434;48.486;7.964;2022-11-20T12:51:15;3.27;;;1.17;;
4839;SDS011;2434;48.486;7.964;2022-11-20T12:53:59;2.07;;;1.20;;
4839;SDS011;2434;48.486;7.964;2022-11-20T12:56:38;1.93;;;1.63;;
4839;SDS011;2434;48.486;7.964;2022-11-20T12:59:21;5.43;;;1.30;;
4839;SDS011;2434;48.486;7.964;2022-11-20T13:01:58;1.67;;;0.90;;
4839;SDS011;2434;48.486;7.964;2022-11-20T13:04:45;1.70;;;0.90;;
4839;SDS011;2434;48.486;7.964;2022-11-20T13:07:24;2.10;;;1.30;;
4839;SDS011;2434;48.486;7.964;2022-11-20T13:09:56;3.17;;;1.17;;
4839;SDS011;2434;48.486;7.964;2022-11-20T13:12:28;2.07;;;1.20;;
4839;SDS011;2434;48.486;7.964;2022-11-20T13:15:02;2.80;;;1.43;;
4839;SDS011;2434;48.486;7.964;2022-11-20T13:17:40;2.80;;;1.30;;
4839;SDS011;2434;48.486;7.964;2022-11-20T13:20:13;1.47;;;0.90;;
4839;SDS011;2434;48.486;7.964;2022-11-20T13:22:44;3.40;;;1.30;;
4839;SDS011;2434;48.486;7.964;2022-11-20T13:25:25;1.97;;;1.33;;
4839;SDS011;2434;48.486;7.964;2022-11-20T13:27:55;7.10;;;1.73;;
4839;SDS011;2434;48.486;7.964;2022-11-20T13:30:24;5.90;;;0.97;;
4839;SDS011;2434;48.486;7.964;2022-11-20T13:32:54;2.43;;;1.20;;
4839;SDS011;2434;48.486;7.964;2022-11-20T13:35:27;5.67;;;1.30;;
4839;SDS011;2434;48.486;7.964;2022-11-20T13:38:02;2.50;;;1.50;;
4839;SDS011;2434;48.486;7.964;2022-11-20T13:40:34;2.27;;;1.80;;
4839;SDS011;2434;48.486;7.964;2022-11-20T13:43:07;3.87;;;1.50;;
4839;SDS011;2434;48.486;7.964;2022-11-20T13:45:53;1.57;;;1.20;;
4839;SDS011;2434;48.486;7.964;2022-11-20T13:48:24;4.50;;;1.83;;
4839;SDS011;2434;48.486;7.964;2022-11-20T13:51:07;1.90;;;1.67;;
4839;SDS011;2434;48.486;7.964;2022-11-20T13:53:51;6.73;;;1.90;;
4839;SDS011;2434;48.486;7.964;2022-11-20T13:56:47;4.90;;;1.40;;
4839;SDS011;2434;48.486;7.964;2022-11-20T13:59:30;1.60;;;1.50;;
4839;SDS011;2434;48.486;7.964;2022-11-20T14:02:09;1.90;;;1.13;;
4839;SDS011;2434;48.486;7.964;2022-11-20T14:04:42;2.50;;;1.13;;
4839;SDS011;2434;48.486;7.964;2022-11-20T14:07:13;1.57;;;0.80;;
4839;SDS011;2434;48.486;7.964;2022-11-20T14:09:49;3.17;;;1.83;;
4839;SDS011;2434;48.486;7.964;2022-11-20T14:12:23;1.20;;;1.10;;
4839;SDS011;2434;48.486;7.964;2022-11-20T14:14:55;3.33;;;1.00;;
4839;SDS011;2434;48.486;7.964;2022-11-20T14:17:28;2.37;;;1.10;;
4839;SDS011;2434;48.486;7.964;2022-11-20T14:19:58;1.80;;;1.23;;
4839;SDS011;2434;48.486;7.964;2022-11-20T14:22:29;1.67;;;1.23;;
4839;SDS011;2434;48.486;7.964;2022-11-20T14:25:01;2.13;;;1.30;;
4839;SDS011;2434;48.486;7.964;2022-11-20T14:27:35;3.83;;;1.37;;
4839;SDS011;2434;48.486;7.964;2022-11-20T14:30:05;4.33;;;1.47;;
4839;SDS011;2434;48.486;7.964;2022-11-20T14:32:40;1.90;;;1.37;;
4839;SDS011;2434;48.486;7.964;2022-11-20T14:35:10;3.93;;;1.80;;
4839;SDS011;2434;48.486;7.964;2022-11-20T14:37:45;1.97;;;1.60;;
4839;SDS011;2434;48.486;7.964;2022-11-20T14:43:14;2.30;;;1.50;;
4839;SDS011;2434;48.486;7.964;2022-11-20T14:45:46;2.87;;;1.03;;
4839;SDS011;2434;48.486;7.964;2022-11-20T14:48:20;2.03;;;1.50;;
4839;SDS011;2434;48.486;7.964;2022-11-20T14:50:52;2.50;;;1.60;;
4839;SDS011;2434;48.486;7.964;2022-11-20T14:53:22;6.80;;;1.50;;
4839;SDS011;2434;48.486;7.964;2022-11-20T14:55:55;2.33;;;1.53;;
4839;SDS011;2434;48.486;7.964;2022-11-20T14:58:26;1.53;;;1.30;;
4839;SDS011;2434;48.486;7.964;2022-11-20T15:00:58;4.80;;;2.03;;
4839;SDS011;2434;48.486;7.964;2022-11-20T15:03:31;2.13;;;1.50;;
4839;SDS011;2434;48.486;7.964;2022-11-20T15:06:00;4.30;;;1.53;;
4839;SDS011;2434;48.486;7.964;2022-11-20T15:08:29;1.90;;;1.40;;
4839;SDS011;2434;48.486;7.964;2022-11-20T15:10:57;2.40;;;1.70;;
4839;SDS011;2434;48.486;7.964;2022-11-20T15:13:29;2.80;;;2.07;;
4839;SDS011;2434;48.486;7.964;2022-11-20T15:15:59;1.63;;;1.53;;
4839;SDS011;2434;48.486;7.964;2022-11-20T15:18:30;3.37;;;2.07;;
4839;SDS011;2434;48.486;7.964;2022-11-20T15:21:01;4.47;;;2.33;;
4839;SDS011;2434;48.486;7.964;2022-11-20T15:23:31;3.90;;;3.07;;
4839;SDS011;2434;48.486;7.964;2022-11-20T15:26:00;8.23;;;3.77;;
4839;SDS011;2434;48.486;7.964;2022-11-20T15:28:30;5.80;;;3.37;;
4839;SDS011;2434;48.486;7.964;2022-11-20T15:31:00;3.90;;;2.93;;
4839;SDS011;2434;48.486;7.964;2022-11-20T15:33:29;3.93;;;2.70;;
4839;SDS011;2434;48.486;7.964;2022-11-20T15:35:58;3.53;;;2.47;;
4839;SDS011;2434;48.486;7.964;2022-11-20T15:38:27;2.90;;;2.30;;
4839;SDS011;2434;48.486;7.964;2022-11-20T15:40:55;4.60;;;2.57;;
4839;SDS011;2434;48.486;7.964;2022-11-20T15:43:23;4.10;;;2.40;;
4839;SDS011;2434;48.486;7.964;2022-11-20T15:45:53;4.80;;;2.83;;
4839;SDS011;2434;48.486;7.964;2022-11-20T15:48:24;3.60;;;2.80;;
4839;SDS011;2434;48.486;7.964;2022-11-20T15:50:57;6.50;;;2.67;;
4839;SDS011;2434;48.486;7.964;2022-11-20T15:53:28;4.57;;;2.43;;